createdAt,value
2022-10-18T00:01:35.050Z,100198.56
2022-10-18T00:04:01.475Z,100204.91
2022-10-18T00:06:27.852Z,100207.66
2022-10-18T00:08:54.312Z,100203.16
2022-10-18T00:11:20.794Z,100207.84
2022-10-18T00:13:47.231Z,100215.19
2022-10-18T00:16:14.986Z,100206.06
2022-10-18T00:18:41.933Z,100214.31
2022-10-18T00:21:13.819Z,100219.72
2022-10-18T00:23:40.535Z,100211.81
2022-10-18T00:26:12.850Z,100222.72
2022-10-18T00:28:39.716Z,100221.16
2022-10-18T00:31:12.141Z,100219.53
2022-10-18T00:33:39.154Z,100216.91
2022-10-18T00:36:05.747Z,100227.78
2022-10-18T00:38:32.241Z,100221.56
2022-10-18T00:40:58.696Z,100215.41
2022-10-18T00:43:25.117Z,100213.69
2022-10-18T00:45:51.737Z,100212.97
2022-10-18T00:48:19.025Z,100208.75
2022-10-18T00:50:46.568Z,100210.59
2022-10-18T00:53:15.257Z,100211.50
2022-10-18T00:55:41.797Z,100203.56
2022-10-18T00:58:08.829Z,100211.72
2022-10-18T01:00:38.763Z,100205.63
2022-10-18T01:03:05.384Z,100203.03
2022-10-18T01:05:32.206Z,100200.41
2022-10-18T01:08:04.419Z,100202.28
2022-10-18T01:10:34.779Z,100205.03
2022-10-18T01:13:13.655Z,100202.41
2022-10-18T01:15:43.226Z,100210.59
2022-10-18T01:18:09.565Z,100215.13
2022-10-18T01:20:42.026Z,100215.03
2022-10-18T01:23:18.536Z,100210.59
2022-10-18T01:25:50.862Z,100212.47
2022-10-18T01:28:35.666Z,100213.53
2022-10-18T01:31:05.479Z,100211.81
2022-10-18T01:33:52.244Z,100216.59
2022-10-18T01:36:33.058Z,100209.59
2022-10-18T01:39:01.917Z,100209.75
2022-10-18T01:41:29.331Z,100202.69
2022-10-18T01:44:00.395Z,100207.22
2022-10-18T01:46:28.280Z,100209.97
2022-10-18T01:48:55.251Z,100216.16
2022-10-18T01:51:40.024Z,100215.34
2022-10-18T01:54:06.478Z,100220.00
2022-10-18T01:56:35.972Z,100216.50
2022-10-18T01:59:08.422Z,100222.91
2022-10-18T02:01:44.020Z,100230.28
2022-10-18T02:04:19.262Z,100214.31
2022-10-18T02:06:47.806Z,100221.56
2022-10-18T02:09:29.080Z,100213.66
2022-10-18T02:11:56.415Z,100212.88
2022-10-18T02:14:23.679Z,100212.13
2022-10-18T02:16:55.723Z,100217.63
2022-10-18T02:19:22.175Z,100213.25
2022-10-18T02:21:49.996Z,100209.84
2022-10-18T02:24:17.867Z,100217.94
2022-10-18T02:26:44.453Z,100218.91
2022-10-18T02:29:11.477Z,100218.13
2022-10-18T02:31:43.689Z,100216.34
2022-10-18T02:34:28.893Z,100221.75
2022-10-18T02:36:58.076Z,100218.25
2022-10-18T02:39:29.433Z,100220.13
2022-10-18T02:41:56.945Z,100221.03
2022-10-18T02:44:23.628Z,100229.09
2022-10-18T02:46:50.024Z,100224.66
2022-10-18T02:49:16.493Z,100217.56
2022-10-18T02:51:42.943Z,100213.91
2022-10-18T02:54:09.398Z,100205.09
2022-10-18T02:56:36.347Z,100213.19
2022-10-18T02:59:04.971Z,100216.81
2022-10-18T03:01:33.099Z,100216.88
2022-10-18T03:03:59.807Z,100219.63
2022-10-18T03:06:26.185Z,100216.94
2022-10-18T03:08:52.640Z,100230.38
2022-10-18T03:11:19.102Z,100234.88
2022-10-18T03:13:45.517Z,100230.38
2022-10-18T03:16:12.242Z,100230.38
2022-10-18T03:18:38.697Z,100233.91
2022-10-18T03:21:05.815Z,100242.94
2022-10-18T03:23:32.289Z,100235.75
2022-10-18T03:25:58.913Z,100235.63
2022-10-18T03:28:25.406Z,100238.31
2022-10-18T03:30:51.867Z,100239.22
2022-10-18T03:33:18.462Z,100242.81
2022-10-18T03:35:44.852Z,100237.56
2022-10-18T03:38:11.361Z,100240.28
2022-10-18T03:40:38.177Z,100240.25
2022-10-18T03:43:04.605Z,100241.97
2022-10-18T03:45:31.604Z,100232.94
2022-10-18T03:47:58.288Z,100222.97
2022-10-18T03:50:24.676Z,100226.41
2022-10-18T03:52:51.119Z,100221.81
2022-10-18T03:55:17.841Z,100225.22
2022-10-18T03:57:44.563Z,100225.06
2022-10-18T04:00:11.264Z,100220.53
2022-10-18T04:02:37.691Z,100217.78
2022-10-18T04:05:04.333Z,100229.38
2022-10-18T04:07:30.826Z,100229.31
2022-10-18T04:09:57.320Z,100231.84
2022-10-18T04:12:23.857Z,100234.41
2022-10-18T04:14:50.352Z,100231.56
2022-10-18T04:17:16.796Z,100234.09
2022-10-18T04:19:43.175Z,100233.03
2022-10-18T04:22:11.936Z,100231.09
2022-10-18T04:24:38.557Z,100225.50
2022-10-18T04:27:05.867Z,100224.44
2022-10-18T04:29:32.332Z,100225.16
2022-10-18T04:31:58.875Z,100227.66
2022-10-18T04:34:25.295Z,100224.81
2022-10-18T04:36:51.697Z,100231.81
2022-10-18T04:39:18.206Z,100226.34
2022-10-18T04:41:44.612Z,100222.53
2022-10-18T04:44:11.689Z,100225.19
2022-10-18T04:46:38.102Z,100228.56
2022-10-18T04:49:04.588Z,100227.56
2022-10-18T04:51:31.055Z,100228.19
2022-10-18T04:53:57.493Z,100224.47
2022-10-18T04:56:24.010Z,100225.34
2022-10-18T04:58:50.395Z,100232.50
2022-10-18T05:01:17.348Z,100233.28
2022-10-18T05:03:43.874Z,100225.09
2022-10-18T05:06:10.429Z,100220.53
2022-10-18T05:08:37.343Z,100228.59
2022-10-18T05:11:04.272Z,100231.16
2022-10-18T05:13:31.414Z,100231.97
2022-10-18T05:16:00.274Z,100229.22
2022-10-18T05:18:26.837Z,100228.22
2022-10-18T05:20:53.473Z,100229.03
2022-10-18T05:23:19.869Z,100233.41
2022-10-18T05:25:46.389Z,100227.03
2022-10-18T05:28:39.154Z,100222.47
2022-10-18T05:31:03.043Z,100226.84
2022-10-18T05:33:29.464Z,100219.59
2022-10-18T05:35:56.015Z,100223.09
2022-10-18T05:38:22.626Z,100218.59
2022-10-18T05:40:49.297Z,100215.81
2022-10-18T05:43:17.865Z,100217.59
2022-10-18T05:45:48.098Z,100224.66
2022-10-18T05:48:14.579Z,100210.25
2022-10-18T05:50:41.061Z,100207.44
2022-10-18T05:53:12.735Z,100207.25
2022-10-18T05:55:53.975Z,100205.38
2022-10-18T05:58:20.597Z,100199.84
2022-10-18T06:00:46.993Z,100191.66
2022-10-18T06:03:13.380Z,100187.94
2022-10-18T06:08:11.202Z,100175.06
2022-10-18T06:10:39.758Z,100172.19
2022-10-18T06:13:06.144Z,100165.72
2022-10-18T06:15:32.707Z,100163.50
2022-10-18T06:17:59.187Z,100166.66
2022-10-18T06:20:25.620Z,100168.34
2022-10-18T06:22:53.159Z,100180.72
2022-10-18T06:25:19.604Z,100188.56
2022-10-18T06:27:46.021Z,100177.66
2022-10-18T06:30:12.523Z,100178.25
2022-10-18T06:32:38.934Z,100177.97
2022-10-18T06:35:05.555Z,100168.66
2022-10-18T06:37:32.299Z,100169.25
2022-10-18T06:39:58.935Z,100162.63
2022-10-18T06:42:25.453Z,100166.16
2022-10-18T06:44:51.955Z,100165.13
2022-10-18T06:47:18.385Z,100175.78
2022-10-18T06:49:44.847Z,100185.59
2022-10-18T06:52:11.325Z,100184.59
2022-10-18T06:54:37.750Z,100175.47
2022-10-18T06:57:04.198Z,100190.63
2022-10-18T06:59:31.435Z,100187.75
2022-10-18T07:01:58.174Z,100192.84
2022-10-18T07:04:24.752Z,100195.38
2022-10-18T07:06:53.763Z,100197.88
2022-10-18T07:09:20.164Z,100196.56
2022-10-18T07:11:46.732Z,100197.13
2022-10-18T07:14:16.296Z,100189.69
2022-10-18T07:16:43.018Z,100189.78
2022-10-18T07:19:09.508Z,100186.13
2022-10-18T07:21:36.578Z,100187.72
2022-10-18T07:24:03.039Z,100188.44
2022-10-18T07:26:30.885Z,100188.31
2022-10-18T07:29:00.441Z,100193.47
2022-10-18T07:31:27.193Z,100206.69
2022-10-18T07:33:53.813Z,100202.00
2022-10-18T07:36:21.350Z,100201.78
2022-10-18T07:38:48.217Z,100194.50
2022-10-18T07:41:14.734Z,100183.53
2022-10-18T07:43:42.050Z,100183.38
2022-10-18T07:46:08.485Z,100186.00
2022-10-18T07:48:34.994Z,100185.69
2022-10-18T07:51:01.821Z,100186.41
2022-10-18T07:53:28.757Z,100197.88
2022-10-18T07:56:04.700Z,100195.09
2022-10-18T07:58:34.182Z,100187.78
2022-10-18T08:01:07.196Z,100191.22
2022-10-18T08:03:33.988Z,100188.66
2022-10-18T08:06:00.577Z,100195.81
2022-10-18T08:08:27.488Z,100194.00
2022-10-18T08:10:54.050Z,100185.81
2022-10-18T08:13:20.605Z,100175.94
2022-10-18T08:15:47.111Z,100174.91
2022-10-18T08:18:14.720Z,100177.38
2022-10-18T08:20:45.145Z,100175.63
2022-10-18T08:23:11.706Z,100169.19
2022-10-18T08:25:38.504Z,100166.56
2022-10-18T08:28:05.048Z,100163.78
2022-10-18T08:30:31.477Z,100151.06
2022-10-18T08:32:57.941Z,100140.03
2022-10-18T08:35:24.382Z,100137.97
2022-10-18T08:37:51.348Z,100143.38
2022-10-18T08:40:17.868Z,100138.84
2022-10-18T08:42:47.271Z,100135.91
2022-10-18T08:45:30.215Z,100134.06
2022-10-18T08:48:00.343Z,100129.44
2022-10-18T08:50:35.505Z,100111.38
2022-10-18T08:53:07.774Z,100106.69
2022-10-18T08:55:38.792Z,100110.34
2022-10-18T08:58:20.086Z,100105.00
2022-10-18T09:00:52.859Z,100117.91
2022-10-18T09:03:38.171Z,100110.66
2022-10-18T09:06:19.829Z,100116.88
2022-10-18T09:09:02.079Z,100123.09
2022-10-18T09:11:41.503Z,100119.50
2022-10-18T09:14:23.218Z,100109.38
2022-10-18T09:16:56.091Z,100105.72
2022-10-18T09:19:31.594Z,100103.75
2022-10-18T09:22:04.033Z,100103.41
2022-10-18T09:24:35.548Z,100084.94
2022-10-18T09:27:05.016Z,100092.28
2022-10-18T09:29:50.269Z,100089.25
2022-10-18T09:32:35.614Z,100088.03
2022-10-18T09:35:22.985Z,100081.66
2022-10-18T09:37:50.516Z,100079.84
2022-10-18T09:40:19.858Z,100072.34
2022-10-18T09:42:53.263Z,100071.44
2022-10-18T09:45:29.465Z,100063.25
2022-10-18T09:47:55.898Z,100055.56
2022-10-18T09:50:48.605Z,100053.41
2022-10-18T09:53:14.991Z,100050.69
2022-10-18T09:55:50.579Z,100047.78
2022-10-18T09:58:18.399Z,100044.13
2022-10-18T10:00:48.114Z,100044.13
2022-10-18T10:03:15.760Z,100044.13
2022-10-18T10:05:43.244Z,100037.75
2022-10-18T10:08:09.864Z,100033.19
2022-10-18T10:10:39.198Z,100033.72
2022-10-18T10:13:22.938Z,100021.41
2022-10-18T10:16:01.044Z,100027.38
2022-10-18T10:18:30.263Z,100019.72
2022-10-18T10:20:58.561Z,100028.78
2022-10-18T10:23:30.645Z,100047.59
2022-10-18T10:25:59.893Z,100079.50
2022-10-18T10:28:28.846Z,100106.84
2022-10-18T10:31:15.199Z,100112.19
2022-10-18T10:33:45.095Z,100101.06
2022-10-18T10:36:19.083Z,100102.94
2022-10-18T10:38:45.550Z,100103.91
2022-10-18T10:41:20.025Z,100102.09
2022-10-18T10:43:46.974Z,100117.78
2022-10-18T10:46:14.753Z,100116.56
2022-10-18T10:48:56.284Z,100140.06
2022-10-18T10:51:40.141Z,100148.25
2022-10-18T10:54:13.482Z,100150.44
2022-10-18T10:57:01.090Z,100186.91
2022-10-18T10:59:30.584Z,100172.31
2022-10-18T11:02:12.319Z,100171.16
2022-10-18T11:04:38.843Z,100164.84
2022-10-18T11:07:20.162Z,100154.50
2022-10-18T11:10:05.331Z,100126.91
2022-10-18T11:12:34.002Z,100125.16
2022-10-18T11:15:14.162Z,100120.81
2022-10-18T11:17:59.009Z,100115.75
2022-10-18T11:20:40.771Z,100123.81
2022-10-18T11:23:10.424Z,100137.38
2022-10-18T11:25:48.764Z,100136.53
2022-10-18T11:28:18.171Z,100130.25
2022-10-18T11:31:03.368Z,100139.84
2022-10-18T11:34:07.062Z,100148.53
2022-10-18T11:36:54.680Z,100148.66
2022-10-18T11:39:33.581Z,100150.72
2022-10-18T11:42:11.860Z,100148.63
2022-10-18T11:44:43.782Z,100150.47
2022-10-18T11:47:13.330Z,100154.75
2022-10-18T11:49:39.771Z,100155.63
2022-10-18T11:52:12.423Z,100160.88
2022-10-18T11:54:49.830Z,100144.09
2022-10-18T11:57:22.390Z,100149.50
2022-10-18T11:59:58.131Z,100150.28
2022-10-18T12:03:02.921Z,100159.00
2022-10-18T12:05:30.277Z,100173.25
2022-10-18T12:08:00.881Z,100180.25
2022-10-18T12:10:44.100Z,100182.31
2022-10-18T12:13:35.582Z,100176.66
2022-10-18T12:16:04.026Z,100168.88
2022-10-18T12:18:32.017Z,100183.19
2022-10-18T12:20:59.390Z,100181.59
2022-10-18T12:23:34.704Z,100177.72
2022-10-18T12:26:02.999Z,100173.28
2022-10-18T12:28:48.222Z,100175.19
2022-10-18T12:31:39.428Z,100181.59
2022-10-18T12:34:24.663Z,100187.03
2022-10-18T12:37:09.427Z,100187.16
2022-10-18T12:40:08.568Z,100190.69
2022-10-18T12:42:40.530Z,100188.88
2022-10-18T12:45:28.627Z,100196.50
2022-10-18T12:47:58.894Z,100196.31
2022-10-18T12:50:28.386Z,100190.84
2022-10-18T12:53:05.841Z,100194.59
2022-10-18T12:55:37.047Z,100191.41
2022-10-18T12:58:05.525Z,100190.94
2022-10-18T13:00:31.960Z,100191.09
2022-10-18T13:03:11.471Z,100192.88
2022-10-18T13:05:55.662Z,100190.69
2022-10-18T13:08:34.539Z,100193.50
2022-10-18T13:11:00.925Z,100201.22
2022-10-18T13:13:46.205Z,100202.78
2022-10-18T13:16:15.678Z,100204.69
2022-10-18T13:18:45.143Z,100204.47
2022-10-18T13:21:14.621Z,100200.47
2022-10-18T13:23:50.374Z,100205.41
2022-10-18T13:26:26.078Z,100202.88
2022-10-18T13:29:11.079Z,100205.34
2022-10-18T13:31:43.779Z,100203.69
2022-10-18T13:34:29.354Z,100204.47
2022-10-18T13:37:15.977Z,100206.31
2022-10-18T13:39:42.523Z,100216.22
2022-10-18T13:42:14.977Z,100212.16
2022-10-18T13:44:43.525Z,100212.25
2022-10-18T13:47:32.011Z,100215.84
2022-10-18T13:50:04.923Z,100208.78
2022-10-18T13:52:40.369Z,100201.84
2022-10-18T13:55:12.873Z,100202.00
2022-10-18T13:57:51.489Z,100201.22
2022-10-18T14:00:24.025Z,100194.91
2022-10-18T14:03:17.614Z,100196.75
2022-10-18T14:05:55.663Z,100192.38
2022-10-18T14:08:25.882Z,100191.47
2022-10-18T14:11:03.868Z,100186.25
2022-10-18T14:13:50.695Z,100182.69
2022-10-18T14:16:40.359Z,100183.31
2022-10-18T14:19:27.054Z,100186.66
2022-10-18T14:21:56.773Z,100185.44
2022-10-18T14:24:26.190Z,100182.34
2022-10-18T14:27:12.844Z,100199.22
2022-10-18T14:29:39.808Z,100206.19
2022-10-18T14:32:11.070Z,100212.50
2022-10-18T14:34:38.673Z,100220.69
2022-10-18T14:37:05.913Z,100219.72
2022-10-18T14:39:33.392Z,100216.94
2022-10-18T14:42:00.101Z,100218.97
2022-10-18T14:44:26.546Z,100215.34
2022-10-18T14:46:55.835Z,100215.44
2022-10-18T14:49:22.324Z,100219.09
2022-10-18T14:51:50.839Z,100229.69
2022-10-18T14:54:25.022Z,100229.59
2022-10-18T14:56:54.228Z,100232.00
2022-10-18T14:59:22.114Z,100221.00
2022-10-18T15:01:53.765Z,100223.25
2022-10-18T15:04:24.974Z,100217.13
2022-10-18T15:06:54.947Z,100218.06
2022-10-18T15:09:23.272Z,100226.19
2022-10-18T15:11:50.158Z,100229.84
2022-10-18T15:14:18.335Z,100218.47
2022-10-18T15:16:45.309Z,100221.25
2022-10-18T15:19:14.807Z,100216.56
2022-10-18T15:22:07.947Z,100221.91
2022-10-18T15:24:41.138Z,100224.97
2022-10-18T15:27:10.503Z,100223.00
2022-10-18T15:29:37.831Z,100221.09
2022-10-18T15:32:07.057Z,100229.94
2022-10-18T15:34:33.607Z,100225.25
2022-10-18T15:37:00.723Z,100237.09
2022-10-18T15:39:28.236Z,100237.16
2022-10-18T15:41:58.866Z,100236.16
2022-10-18T15:44:29.763Z,100239.09
2022-10-18T15:46:57.238Z,100246.31
2022-10-18T15:49:23.610Z,100245.59
2022-10-18T15:51:54.164Z,100241.28
2022-10-18T15:54:29.244Z,100244.47
2022-10-18T15:56:56.293Z,100242.91
2022-10-18T15:59:27.982Z,100236.06
2022-10-18T16:01:54.830Z,100251.84
2022-10-18T16:04:24.178Z,100253.69
2022-10-18T16:06:50.846Z,100257.44
2022-10-18T16:09:19.104Z,100255.88
2022-10-18T16:11:45.984Z,100253.06
2022-10-18T16:14:12.976Z,100259.03
2022-10-18T16:16:39.567Z,100257.13
2022-10-18T16:19:06.659Z,100257.25
2022-10-18T16:21:37.101Z,100255.53
2022-10-18T16:24:03.981Z,100255.88
2022-10-18T16:26:30.742Z,100260.81
2022-10-18T16:28:58.105Z,100254.97
2022-10-18T16:31:26.950Z,100262.91
2022-10-18T16:33:53.973Z,100267.47
2022-10-18T16:36:21.990Z,100268.41
2022-10-18T16:38:48.939Z,100264.44
2022-10-18T16:41:15.916Z,100266.94
2022-10-18T16:43:43.619Z,100274.09
2022-10-18T16:46:11.631Z,100270.53
2022-10-18T16:48:38.067Z,100275.94
2022-10-18T16:51:04.493Z,100269.94
2022-10-18T16:53:30.988Z,100270.22
2022-10-18T16:55:59.306Z,100278.53
2022-10-18T16:58:26.483Z,100273.94
2022-10-18T17:00:53.261Z,100270.84
2022-10-18T17:03:19.988Z,100271.25
2022-10-18T17:05:46.395Z,100259.91
2022-10-18T17:08:18.122Z,100264.75
2022-10-18T17:10:45.537Z,100256.84
2022-10-18T17:13:12.066Z,100263.13
2022-10-18T17:15:38.588Z,100267.81
2022-10-18T17:18:06.011Z,100278.97
2022-10-18T17:20:32.431Z,100286.38
2022-10-18T17:22:58.895Z,100287.47
2022-10-18T17:25:25.387Z,100294.09
2022-10-18T17:27:51.866Z,100297.53
2022-10-18T17:30:18.317Z,100282.41
2022-10-18T17:32:44.820Z,100286.66
2022-10-18T17:35:11.849Z,100287.91
2022-10-18T17:37:43.914Z,100281.94
2022-10-18T17:40:12.465Z,100289.63
2022-10-18T17:42:38.873Z,100288.31
2022-10-18T17:45:05.545Z,100290.81
2022-10-18T17:47:32.317Z,100293.59
2022-10-18T17:49:58.988Z,100292.94
2022-10-18T17:52:25.437Z,100288.59
2022-10-18T17:54:51.854Z,100290.59
2022-10-18T17:57:18.488Z,100290.63
2022-10-18T17:59:44.870Z,100287.81
2022-10-18T18:02:11.666Z,100285.84
2022-10-18T18:04:38.110Z,100288.47
2022-10-18T18:07:04.649Z,100285.91
2022-10-18T18:09:31.331Z,100295.56
2022-10-18T18:11:58.075Z,100285.72
2022-10-18T18:14:24.508Z,100288.31
2022-10-18T18:16:50.986Z,100290.09
2022-10-18T18:19:20.380Z,100281.03
2022-10-18T18:21:46.849Z,100283.66
2022-10-18T18:24:14.083Z,100289.75
2022-10-18T18:26:41.966Z,100294.19
2022-10-18T18:29:08.471Z,100290.44
2022-10-18T18:31:38.959Z,100294.88
2022-10-18T18:34:09.535Z,100290.44
2022-10-18T18:36:36.065Z,100298.28
2022-10-18T18:39:02.536Z,100286.03
2022-10-18T18:41:29.034Z,100295.94
2022-10-18T18:43:59.839Z,100301.28
2022-10-18T18:46:27.257Z,100293.03
2022-10-18T18:48:53.858Z,100304.78
2022-10-18T18:51:21.207Z,100301.88
2022-10-18T18:53:48.250Z,100300.06
2022-10-18T18:56:16.288Z,100298.00
2022-10-18T18:58:44.088Z,100295.47
2022-10-18T19:01:12.636Z,100285.31
2022-10-18T19:03:40.285Z,100289.13
2022-10-18T19:06:08.389Z,100294.66
2022-10-18T19:08:35.545Z,100291.94
2022-10-18T19:11:02.242Z,100292.88
2022-10-18T19:13:28.689Z,100293.91
2022-10-18T19:16:30.735Z,100299.31
2022-10-18T19:19:23.476Z,100301.22
2022-10-18T19:21:54.425Z,100296.88
2022-10-18T19:24:21.617Z,100293.31
2022-10-18T19:26:52.891Z,100300.97
2022-10-18T19:29:23.843Z,100298.47
2022-10-18T19:31:50.981Z,100302.72
2022-10-18T19:34:17.712Z,100303.19
2022-10-18T19:36:45.302Z,100304.09
2022-10-18T19:39:18.288Z,100310.56
2022-10-18T19:41:45.612Z,100311.56
2022-10-18T19:44:12.232Z,100309.69
2022-10-18T19:46:38.984Z,100312.47
2022-10-18T19:49:05.406Z,100299.81
2022-10-18T19:51:32.069Z,100307.19
2022-10-18T19:53:58.513Z,100308.94
2022-10-18T19:56:26.179Z,100311.88
2022-10-18T19:58:52.604Z,100307.34
2022-10-18T20:01:19.444Z,100300.53
2022-10-18T20:03:46.150Z,100308.78
2022-10-18T20:06:12.929Z,100315.19
2022-10-18T20:08:39.627Z,100311.72
2022-10-18T20:11:08.224Z,100305.69
2022-10-18T20:13:35.116Z,100307.47
2022-10-18T20:16:01.795Z,100311.09
2022-10-18T20:18:28.212Z,100302.34
2022-10-18T20:20:54.611Z,100306.88
2022-10-18T20:23:21.246Z,100305.97
2022-10-18T20:25:56.476Z,100302.53
2022-10-18T20:28:22.919Z,100300.78
2022-10-18T20:30:49.301Z,100306.69
2022-10-18T20:33:15.660Z,100299.06
2022-10-18T20:35:42.100Z,100305.44
2022-10-18T20:38:08.498Z,100309.19
2022-10-18T20:40:34.920Z,100309.16
2022-10-18T20:43:03.744Z,100305.56
2022-10-18T20:45:30.407Z,100313.72
2022-10-18T20:47:56.811Z,100310.00
2022-10-18T20:50:23.278Z,100314.41
2022-10-18T20:52:51.334Z,100324.41
2022-10-18T20:55:18.865Z,100318.84
2022-10-18T20:57:45.253Z,100312.59
2022-10-18T21:00:12.943Z,100310.16
2022-10-18T21:02:39.373Z,100315.47
2022-10-18T21:05:05.939Z,100310.16
2022-10-18T21:07:32.567Z,100318.50
2022-10-18T21:09:59.149Z,100314.13
2022-10-18T21:12:27.586Z,100309.41
2022-10-18T21:14:55.612Z,100312.97
2022-10-18T21:17:22.072Z,100314.66
2022-10-18T21:19:48.635Z,100315.41
2022-10-18T21:22:15.025Z,100306.25
2022-10-18T21:24:42.569Z,100311.72
2022-10-18T21:27:09.031Z,100312.53
2022-10-18T21:29:35.560Z,100313.34
2022-10-18T21:32:02.749Z,100316.22
2022-10-18T21:34:29.266Z,100316.16
2022-10-18T21:36:55.663Z,100316.50
2022-10-18T21:41:50.814Z,100320.53
2022-10-18T21:44:17.230Z,100323.13
2022-10-18T21:46:44.171Z,100328.53
2022-10-18T21:49:10.948Z,100323.25
2022-10-18T21:51:37.694Z,100318.75
2022-10-18T21:54:04.287Z,100324.38
2022-10-18T21:56:33.864Z,100332.41
2022-10-18T21:59:00.816Z,100328.34
2022-10-18T22:01:34.920Z,100333.94
2022-10-18T22:04:02.355Z,100330.44
2022-10-18T22:06:32.173Z,100326.72
2022-10-18T22:08:59.948Z,100330.50
2022-10-18T22:11:31.172Z,100326.38
2022-10-18T22:13:57.966Z,100314.91
2022-10-18T22:16:24.984Z,100314.28
2022-10-18T22:18:51.811Z,100313.59
2022-10-18T22:21:19.205Z,100311.00
2022-10-18T22:23:50.268Z,100311.94
2022-10-18T22:26:18.495Z,100322.78
2022-10-18T22:28:46.080Z,100322.44
2022-10-18T22:31:22.458Z,100321.44
2022-10-18T22:33:53.007Z,100327.91
2022-10-18T22:36:19.449Z,100327.97
2022-10-18T22:38:45.871Z,100318.41
2022-10-18T22:41:12.523Z,100321.69
2022-10-18T22:43:39.469Z,100309.06
2022-10-18T22:46:07.387Z,100300.13
2022-10-18T22:48:34.184Z,100308.25
2022-10-18T22:51:00.951Z,100304.88
2022-10-18T22:53:27.727Z,100304.00
2022-10-18T22:55:54.395Z,100300.63
2022-10-18T22:58:21.088Z,100293.56
2022-10-18T23:00:47.627Z,100300.22
2022-10-18T23:03:15.656Z,100300.22
2022-10-18T23:05:42.822Z,100298.28
2022-10-18T23:08:10.740Z,100299.28
2022-10-18T23:10:38.056Z,100302.78
2022-10-18T23:13:05.273Z,100298.28
2022-10-18T23:15:33.623Z,100295.75
2022-10-18T23:18:00.468Z,100296.72
2022-10-18T23:20:27.070Z,100302.34
2022-10-18T23:22:53.564Z,100313.22
2022-10-18T23:25:20.012Z,100309.75
2022-10-18T23:27:46.694Z,100310.34
2022-10-18T23:30:13.302Z,100318.50
2022-10-18T23:32:39.888Z,100311.44
2022-10-18T23:35:06.658Z,100316.94
2022-10-18T23:37:33.316Z,100317.97
2022-10-18T23:39:59.964Z,100313.56
2022-10-18T23:42:26.429Z,100315.72
2022-10-18T23:44:52.831Z,100315.50
2022-10-18T23:47:19.263Z,100311.56
2022-10-18T23:49:45.685Z,100306.25
2022-10-18T23:52:12.122Z,100313.34
2022-10-18T23:54:38.587Z,100310.03
2022-10-18T23:57:05.082Z,100313.72
2022-10-18T23:59:31.518Z,100317.59
